createdAt,value
2022-10-17T00:02:31.579Z,102160.56
2022-10-17T00:07:33.173Z,102157.16
2022-10-17T00:12:35.613Z,102172.91
2022-10-17T00:17:38.362Z,102202.44
2022-10-17T00:22:40.013Z,102198.34
2022-10-17T00:27:42.450Z,102208.16
2022-10-17T00:32:44.108Z,102204.97
2022-10-17T00:37:45.679Z,102213.88
2022-10-17T00:42:47.638Z,102208.75
2022-10-17T00:47:55.410Z,102221.09
2022-10-17T00:53:01.783Z,102218.81
2022-10-17T00:58:06.662Z,102283.72
2022-10-17T01:03:08.286Z,102276.09
2022-10-17T01:08:11.314Z,102274.66
2022-10-17T01:13:30.227Z,102270.47
2022-10-17T01:19:16.069Z,102271.50
2022-10-17T01:24:38.951Z,102265.66
2022-10-17T01:30:09.966Z,102256.47
2022-10-17T01:35:15.560Z,102257.47
2022-10-17T01:40:33.470Z,102259.56
2022-10-17T01:45:45.676Z,102248.47
2022-10-17T01:51:07.274Z,102231.22
2022-10-17T01:56:11.304Z,102223.50
2022-10-17T02:01:15.768Z,102211.38
2022-10-17T02:06:19.846Z,102209.72
2022-10-17T02:11:24.222Z,102204.59
2022-10-17T02:17:03.448Z,102199.34
2022-10-17T02:22:23.190Z,102201.16
2022-10-17T02:27:40.263Z,102201.13
2022-10-17T02:32:52.083Z,102207.00
2022-10-17T02:37:55.580Z,102204.41
2022-10-17T02:42:59.943Z,102220.06
2022-10-17T02:48:16.521Z,102213.44
2022-10-17T02:53:30.293Z,102236.66
2022-10-17T02:58:36.451Z,102229.66
2022-10-17T03:03:38.011Z,102213.50
2022-10-17T03:08:39.677Z,102214.31
2022-10-17T03:13:41.249Z,102215.19
2022-10-17T03:18:45.393Z,102213.00
2022-10-17T03:23:49.790Z,102212.06
2022-10-17T03:28:54.517Z,102226.81
2022-10-17T03:33:57.666Z,102224.50
2022-10-17T03:38:59.273Z,102226.16
2022-10-17T03:44:02.615Z,102234.03
2022-10-17T03:49:04.236Z,102234.09
2022-10-17T03:54:06.128Z,102240.22
2022-10-17T03:59:10.560Z,102247.91
2022-10-17T04:04:13.466Z,102246.41
2022-10-17T04:09:15.451Z,102237.78
2022-10-17T04:14:29.939Z,102243.13
2022-10-17T04:19:32.432Z,102240.53
2022-10-17T04:24:34.286Z,102227.72
2022-10-17T04:29:43.999Z,102205.38
2022-10-17T04:34:51.539Z,102204.81
2022-10-17T04:39:56.084Z,102187.75
2022-10-17T04:44:57.848Z,102182.47
2022-10-17T04:50:01.100Z,102187.00
2022-10-17T04:55:07.825Z,102170.59
2022-10-17T05:00:10.976Z,102161.97
2022-10-17T05:05:28.379Z,102151.59
2022-10-17T05:10:35.560Z,102157.06
2022-10-17T05:15:39.106Z,102167.78
2022-10-17T05:20:40.769Z,102146.31
2022-10-17T05:25:42.463Z,102146.41
2022-10-17T05:30:44.135Z,102118.53
2022-10-17T05:35:45.789Z,102114.03
2022-10-17T05:40:48.724Z,102116.03
2022-10-17T05:45:50.742Z,102121.06
2022-10-17T05:51:04.043Z,102119.78
2022-10-17T05:56:08.329Z,102113.88
2022-10-17T06:01:12.926Z,102113.03
2022-10-17T06:06:15.178Z,102134.38
2022-10-17T06:11:19.127Z,102139.59
2022-10-17T06:16:21.703Z,102144.13
2022-10-17T06:21:25.795Z,102148.59
2022-10-17T06:26:33.743Z,102152.28
2022-10-17T06:31:35.648Z,102142.19
2022-10-17T06:36:37.366Z,102112.09
2022-10-17T06:41:41.062Z,102113.13
2022-10-17T06:46:45.116Z,102107.25
2022-10-17T06:51:50.464Z,102094.84
2022-10-17T06:56:56.245Z,102085.66
2022-10-17T07:02:25.963Z,102090.94
2022-10-17T07:07:31.867Z,102082.38
2022-10-17T07:12:33.571Z,102076.63
2022-10-17T07:17:35.244Z,102068.22
2022-10-17T07:22:36.886Z,102059.75
2022-10-17T07:34:39.150Z,102041.22
2022-10-17T07:39:42.231Z,102037.88
2022-10-17T07:44:47.420Z,102026.81
2022-10-17T07:49:49.088Z,101993.53
2022-10-17T07:54:50.627Z,101976.44
2022-10-17T07:59:52.834Z,101996.75
2022-10-17T08:04:54.808Z,102004.47
2022-10-17T08:09:56.546Z,102014.97
2022-10-17T08:14:58.061Z,102034.06
2022-10-17T08:19:59.597Z,102064.28
2022-10-17T08:25:01.080Z,102052.78
2022-10-17T08:30:02.642Z,102063.19
2022-10-17T08:35:04.309Z,102070.25
2022-10-17T08:40:06.766Z,102105.03
2022-10-17T08:45:08.299Z,102120.53
2022-10-17T08:50:23.986Z,102130.88
2022-10-17T08:55:48.064Z,102141.16
2022-10-17T09:00:59.937Z,102114.81
2022-10-17T09:06:29.735Z,102086.22
2022-10-17T09:12:03.998Z,102119.97
2022-10-17T09:17:20.921Z,102120.09
2022-10-17T09:22:28.279Z,102127.81
2022-10-17T09:27:44.610Z,102152.00
2022-10-17T09:32:47.700Z,102151.25
2022-10-17T09:37:51.056Z,102143.63
2022-10-17T09:42:53.543Z,102154.88
2022-10-17T09:48:10.349Z,102158.13
2022-10-17T09:53:26.840Z,102175.34
2022-10-17T09:58:48.943Z,102195.34
2022-10-17T10:05:19.884Z,102227.38
2022-10-17T10:10:31.893Z,102274.78
2022-10-17T10:15:40.994Z,102361.72
2022-10-17T10:20:46.755Z,102361.72
2022-10-17T10:25:53.632Z,102383.22
2022-10-17T10:30:57.496Z,102427.44
2022-10-17T10:36:06.386Z,102476.50
2022-10-17T10:41:10.033Z,102542.47
2022-10-17T10:46:27.379Z,102600.25
2022-10-17T10:51:41.327Z,102609.59
2022-10-17T10:56:55.963Z,102615.06
2022-10-17T11:02:39.319Z,102620.22
2022-10-17T11:07:47.608Z,102637.38
2022-10-17T11:13:03.844Z,102657.19
2022-10-17T11:18:11.444Z,102690.97
2022-10-17T11:23:21.375Z,102684.06
2022-10-17T11:28:24.991Z,102705.16
2022-10-17T11:33:47.252Z,102729.91
2022-10-17T11:38:58.893Z,102742.38
2022-10-17T11:44:39.179Z,102735.41
2022-10-17T11:49:55.282Z,102737.44
2022-10-17T11:55:05.392Z,102751.22
2022-10-17T12:00:35.788Z,102759.19
2022-10-17T12:06:08.177Z,102767.16
2022-10-17T12:11:50.695Z,102775.41
2022-10-17T12:16:53.192Z,102775.00
2022-10-17T12:22:05.774Z,102768.00
2022-10-17T12:27:37.197Z,102775.09
2022-10-17T12:33:05.594Z,102775.22
2022-10-17T12:38:17.531Z,102780.31
2022-10-17T12:43:28.156Z,102780.41
2022-10-17T12:48:39.395Z,102789.69
2022-10-17T12:53:47.168Z,102801.13
2022-10-17T12:58:50.562Z,102802.97
2022-10-17T13:03:53.259Z,102801.41
2022-10-17T13:09:04.100Z,102803.84
2022-10-17T13:14:13.289Z,102817.28
2022-10-17T13:19:17.065Z,102816.72
2022-10-17T13:24:28.481Z,102822.09
2022-10-17T13:29:32.193Z,102827.81
2022-10-17T13:34:34.114Z,102831.06
2022-10-17T13:40:11.403Z,102852.03
2022-10-17T13:45:27.411Z,102859.91
2022-10-17T13:50:44.145Z,102870.28
2022-10-17T13:56:09.791Z,102869.97
2022-10-17T14:01:18.702Z,102869.34
2022-10-17T14:06:28.205Z,102853.38
2022-10-17T14:11:42.652Z,102842.06
2022-10-17T14:16:44.691Z,102845.34
2022-10-17T14:21:48.575Z,102846.19
2022-10-17T14:26:52.591Z,102842.63
2022-10-17T14:32:02.781Z,102855.41
2022-10-17T14:37:35.108Z,102866.88
2022-10-17T14:42:40.188Z,102868.66
2022-10-17T14:47:44.138Z,102884.38
2022-10-17T14:53:05.163Z,102905.19
2022-10-17T14:58:25.191Z,102913.16
2022-10-17T15:03:27.332Z,102935.69
2022-10-17T15:08:28.863Z,102945.56
2022-10-17T15:13:33.566Z,102938.44
2022-10-17T15:18:38.269Z,102945.25
2022-10-17T15:23:40.626Z,102942.50
2022-10-17T15:28:43.064Z,102937.88
2022-10-17T15:33:45.447Z,102917.81
2022-10-17T15:38:47.902Z,102908.94
2022-10-17T15:43:49.644Z,102899.06
2022-10-17T15:48:51.555Z,102892.09
2022-10-17T15:53:53.028Z,102890.22
2022-10-17T15:58:54.726Z,102893.50
2022-10-17T16:03:57.297Z,102907.03
2022-10-17T16:08:58.848Z,102919.22
2022-10-17T16:14:03.231Z,102943.13
2022-10-17T16:19:05.548Z,102955.97
2022-10-17T16:24:11.026Z,102981.06
2022-10-17T16:29:12.593Z,102995.59
2022-10-17T16:34:15.886Z,103004.00
2022-10-17T16:39:17.419Z,103008.16
2022-10-17T16:44:19.098Z,103011.63
2022-10-17T16:49:20.605Z,103019.44
2022-10-17T16:54:22.124Z,103034.09
2022-10-17T16:59:24.353Z,103049.69
2022-10-17T17:04:25.840Z,103058.06
2022-10-17T17:09:27.512Z,103069.09
2022-10-17T17:14:29.054Z,103073.53
2022-10-17T17:19:31.627Z,103077.53
2022-10-17T17:24:34.134Z,103083.78
2022-10-17T17:29:35.670Z,103092.88
2022-10-17T17:34:37.792Z,103096.88
2022-10-17T17:39:39.293Z,103093.22
2022-10-17T17:44:40.796Z,103094.47
2022-10-17T17:49:42.367Z,103104.16
2022-10-17T17:54:44.409Z,103112.78
2022-10-17T17:59:45.919Z,103116.25
2022-10-17T18:04:48.619Z,103120.44
2022-10-17T18:09:51.641Z,103115.69
2022-10-17T18:14:53.112Z,103123.72
2022-10-17T18:19:54.671Z,103133.09
2022-10-17T18:24:56.198Z,103137.34
2022-10-17T18:29:57.896Z,103146.13
2022-10-17T18:34:59.591Z,103158.44
2022-10-17T18:40:03.045Z,103164.53
2022-10-17T18:45:05.816Z,103166.16
2022-10-17T18:50:07.562Z,103173.75
2022-10-17T18:55:09.367Z,103163.03
2022-10-17T19:00:11.460Z,103171.44
2022-10-17T19:05:13.124Z,103174.44
2022-10-17T19:10:14.660Z,103183.88
2022-10-17T19:15:16.311Z,103199.03
2022-10-17T19:20:17.978Z,103204.91
2022-10-17T19:25:19.561Z,103201.47
2022-10-17T19:30:21.571Z,103213.59
2022-10-17T19:35:23.055Z,103220.56
2022-10-17T19:40:24.564Z,103233.06
2022-10-17T19:45:26.163Z,103239.75
2022-10-17T19:50:27.653Z,103239.63
2022-10-17T19:55:32.432Z,103249.72
2022-10-17T20:00:34.173Z,103248.78
2022-10-17T20:05:37.908Z,103256.81
2022-10-17T20:10:39.676Z,103253.31
2022-10-17T20:15:41.461Z,103249.25
2022-10-17T20:20:42.952Z,103261.75
2022-10-17T20:25:44.467Z,103263.53
2022-10-17T20:30:46.492Z,103270.22
2022-10-17T20:35:50.092Z,103280.28
2022-10-17T20:40:51.595Z,103286.50
2022-10-17T20:45:59.767Z,103289.50
2022-10-17T20:51:09.156Z,103280.63
2022-10-17T20:56:20.536Z,103296.31
2022-10-17T21:01:23.140Z,103305.56
2022-10-17T21:06:29.947Z,103305.06
2022-10-17T21:11:40.105Z,103305.59
2022-10-17T21:16:41.831Z,103312.69
2022-10-17T21:21:45.893Z,103316.78
2022-10-17T21:26:53.483Z,103319.66
2022-10-17T21:31:55.158Z,103312.13
2022-10-17T21:36:56.899Z,103299.28
2022-10-17T21:41:58.445Z,103298.34
2022-10-17T21:46:59.938Z,103278.59
2022-10-17T21:52:04.033Z,103278.00
2022-10-17T21:57:05.543Z,103272.00
2022-10-17T22:02:07.069Z,103277.56
2022-10-17T22:07:08.542Z,103274.16
2022-10-17T22:12:10.056Z,103282.84
2022-10-17T22:17:11.742Z,103272.69
2022-10-17T22:22:13.270Z,103293.56
2022-10-17T22:27:14.794Z,103293.44
2022-10-17T22:32:20.055Z,103284.94
2022-10-17T22:37:23.975Z,103293.72
2022-10-17T22:42:25.666Z,103296.47
2022-10-17T22:47:27.383Z,103296.59
2022-10-17T22:52:29.257Z,103308.97
2022-10-17T22:57:31.347Z,103304.53
2022-10-17T23:02:33.348Z,103308.91
2022-10-17T23:07:35.192Z,103312.94
2022-10-17T23:12:36.666Z,103306.25
2022-10-17T23:17:38.178Z,103310.63
2022-10-17T23:22:39.681Z,103320.19
2022-10-17T23:27:41.184Z,103322.03
2022-10-17T23:32:42.802Z,103322.75
2022-10-17T23:37:44.279Z,103319.66
2022-10-17T23:42:45.861Z,103329.75
2022-10-17T23:47:48.464Z,103336.66
2022-10-17T23:52:49.975Z,103350.03
2022-10-17T23:57:51.444Z,103334.59
